TTPP/POS METAR and TAF weather

Enter ICAO airport designator
Station Type Date Time Source
TTPP METAR 2024/07/12 19:00 UTC NOAA

TTPP 121900Z 10007KT 9999 VCSH FEW005 27/25 Q1014 NOSIG RMK VCSH N QUAD E S


Station Type Date Time Source
TTPP Decoded METAR 2024/07/12 19:00 UTC NOAA

Piarco International Airport, Trinidad, Trinidad and Tobago (TTPP) 10-37N 061-21W 15M
Jul 12, 2024 - 03:00 PM EDT / 2024.07.12 1900 UTC
Wind: from the E (100 degrees) at 8 MPH (7 KT):0
Visibility: greater than 7 mile(s):0
Sky conditions: mostly clear
Weather: showers in the vicinity
Temperature: 80 F (27 C)
Dew Point: 77 F (25 C)
Relative Humidity: 88%
Pressure (altimeter): 29.94 in. Hg (1014 hPa)
ob: TTPP 121900Z 10007KT 9999 VCSH FEW005 27/25 Q1014 NOSIG RMK VCSH N QUAD E S
cycle: 19

Station Type Date Time Source
TTPP TAF 2024/07/12 18:22 UTC NOAA